createdAt,value
2022-12-03T00:02:04.810Z,42.33
2022-12-03T00:04:31.135Z,39.67
2022-12-03T00:06:57.459Z,43.65
2022-12-03T00:09:23.777Z,42.15
2022-12-03T00:11:50.103Z,44.50
2022-12-03T00:14:16.418Z,42.95
2022-12-03T00:16:42.743Z,42.28
2022-12-03T00:19:09.089Z,42.47
2022-12-03T00:21:35.473Z,40.38
2022-12-03T00:24:01.820Z,41.22
2022-12-03T00:26:28.130Z,41.00
2022-12-03T00:28:54.968Z,37.38
2022-12-03T00:31:24.488Z,40.90
2022-12-03T00:33:50.828Z,43.00
2022-12-03T00:36:17.130Z,39.65
2022-12-03T00:38:43.448Z,41.90
2022-12-03T00:41:09.771Z,37.13
2022-12-03T00:43:36.096Z,42.55
2022-12-03T00:46:02.468Z,40.67
2022-12-03T00:48:28.843Z,44.53
2022-12-03T00:50:55.164Z,41.70
2022-12-03T00:53:21.495Z,39.70
2022-12-03T00:55:47.821Z,40.92
2022-12-03T00:58:14.149Z,40.12
2022-12-03T01:00:40.456Z,38.58
2022-12-03T01:03:06.806Z,40.13
2022-12-03T01:05:33.117Z,41.05
2022-12-03T01:07:59.481Z,38.50
2022-12-03T01:10:25.879Z,39.40
2022-12-03T01:12:52.198Z,41.50
2022-12-03T01:15:18.537Z,40.53
2022-12-03T01:17:44.869Z,42.35
2022-12-03T01:20:11.236Z,42.60
2022-12-03T01:22:37.627Z,38.53
2022-12-03T01:25:03.937Z,40.12
2022-12-03T01:27:30.311Z,37.03
2022-12-03T01:29:56.640Z,41.05
2022-12-03T01:32:22.977Z,42.58
2022-12-03T01:34:49.329Z,40.37
2022-12-03T01:37:15.640Z,39.53
2022-12-03T01:39:41.969Z,37.10
2022-12-03T01:42:08.299Z,42.28
2022-12-03T01:44:34.650Z,42.33
2022-12-03T01:47:01.087Z,42.20
2022-12-03T01:49:27.536Z,38.15
2022-12-03T01:51:53.854Z,40.83
2022-12-03T01:54:20.170Z,40.00
2022-12-03T01:56:46.482Z,38.88
2022-12-03T01:59:12.798Z,40.42
2022-12-03T02:01:39.213Z,42.13
2022-12-03T02:04:05.606Z,38.03
2022-12-03T02:06:31.942Z,39.35
2022-12-03T02:09:00.266Z,39.25
2022-12-03T02:11:26.649Z,35.97
2022-12-03T02:13:52.963Z,36.38
2022-12-03T02:16:19.337Z,36.92
2022-12-03T02:18:45.674Z,38.00
2022-12-03T02:21:12.000Z,39.22
2022-12-03T02:23:38.326Z,35.92
2022-12-03T02:26:04.629Z,37.33
2022-12-03T02:28:30.998Z,36.42
2022-12-03T02:30:57.337Z,34.22
2022-12-03T02:33:23.687Z,35.45
2022-12-03T02:35:50.062Z,37.10
2022-12-03T02:38:16.393Z,38.38
2022-12-03T02:40:42.714Z,42.33
2022-12-03T02:43:09.810Z,38.22
2022-12-03T02:45:36.155Z,39.03
2022-12-03T02:48:02.496Z,36.42
2022-12-03T02:50:28.828Z,37.42
2022-12-03T02:52:55.197Z,36.80
2022-12-03T02:55:21.512Z,40.15
2022-12-03T02:57:47.886Z,39.40
2022-12-03T03:00:14.223Z,37.92
2022-12-03T03:02:40.591Z,35.00
2022-12-03T03:05:07.017Z,42.72
2022-12-03T03:07:33.371Z,39.15
2022-12-03T03:09:59.738Z,39.63
2022-12-03T03:12:26.087Z,37.15
2022-12-03T03:14:52.607Z,37.47
2022-12-03T03:17:19.129Z,38.08
2022-12-03T03:19:45.517Z,41.65
2022-12-03T03:22:11.839Z,42.85
2022-12-03T03:24:38.159Z,40.00
2022-12-03T03:27:04.474Z,41.33
2022-12-03T03:29:30.782Z,40.87
2022-12-03T03:31:57.143Z,42.13
2022-12-03T03:34:23.515Z,39.88
2022-12-03T03:36:49.837Z,37.80
2022-12-03T03:39:16.171Z,40.50
2022-12-03T03:41:42.479Z,40.33
2022-12-03T03:44:08.786Z,37.63
2022-12-03T03:46:35.241Z,36.03
2022-12-03T03:49:01.598Z,38.20
2022-12-03T03:51:27.954Z,36.22
2022-12-03T03:53:54.313Z,36.97
2022-12-03T03:56:20.640Z,38.15
2022-12-03T03:58:46.949Z,35.97
2022-12-03T04:01:13.322Z,39.65
2022-12-03T04:03:39.688Z,37.45
2022-12-03T04:06:06.045Z,35.88
2022-12-03T04:08:32.349Z,36.85
2022-12-03T04:11:17.422Z,35.83
2022-12-03T04:13:43.737Z,38.50
2022-12-03T04:16:10.163Z,34.80
2022-12-03T04:18:42.881Z,33.72
2022-12-03T04:21:27.959Z,39.13
2022-12-03T04:23:54.286Z,36.15
2022-12-03T04:26:39.356Z,36.50
2022-12-03T04:29:05.955Z,35.00
2022-12-03T04:31:51.006Z,39.10
2022-12-03T04:34:35.983Z,38.33
2022-12-03T04:37:02.296Z,38.20
2022-12-03T04:39:28.633Z,37.60
2022-12-03T04:41:54.953Z,36.92
2022-12-03T04:44:33.619Z,36.55
2022-12-03T04:46:59.942Z,35.45
2022-12-03T04:49:26.278Z,37.50
2022-12-03T04:51:52.621Z,34.13
2022-12-03T04:54:19.015Z,35.45
2022-12-03T04:56:45.396Z,32.60
2022-12-03T04:59:15.920Z,38.60
2022-12-03T05:01:42.751Z,37.35
2022-12-03T05:04:09.180Z,36.20
2022-12-03T05:06:35.511Z,34.72
2022-12-03T05:09:01.813Z,39.95
2022-12-03T05:11:28.174Z,37.72
2022-12-03T05:13:54.524Z,35.45
2022-12-03T05:16:20.916Z,38.25
2022-12-03T05:18:47.313Z,36.35
2022-12-03T05:21:13.629Z,29.97
2022-12-03T05:23:39.956Z,34.97
2022-12-03T05:26:06.281Z,34.87
2022-12-03T05:28:32.600Z,34.72
2022-12-03T05:30:58.977Z,36.00
2022-12-03T05:33:25.361Z,36.97
2022-12-03T05:35:51.666Z,33.85
2022-12-03T05:38:17.985Z,33.30
2022-12-03T05:40:44.298Z,38.78
2022-12-03T05:43:10.611Z,36.78
2022-12-03T05:45:36.997Z,35.75
2022-12-03T05:48:03.322Z,32.15
2022-12-03T05:50:29.695Z,36.90
2022-12-03T05:52:56.013Z,33.97
2022-12-03T05:55:22.344Z,34.28
2022-12-03T05:57:48.678Z,36.05
2022-12-03T06:00:15.018Z,34.33
2022-12-03T06:02:41.429Z,37.53
2022-12-03T06:05:07.938Z,34.40
2022-12-03T06:07:34.322Z,35.13
2022-12-03T06:10:02.610Z,36.22
2022-12-03T06:12:28.935Z,30.58
2022-12-03T06:14:55.585Z,34.28
2022-12-03T06:17:22.154Z,38.80
2022-12-03T06:19:48.533Z,34.45
2022-12-03T06:22:14.874Z,34.53
2022-12-03T06:24:41.208Z,37.47
2022-12-03T06:27:07.537Z,35.45
2022-12-03T06:29:33.855Z,35.78
2022-12-03T06:32:00.206Z,37.10
2022-12-03T06:34:26.515Z,38.33
2022-12-03T06:36:52.897Z,35.90
2022-12-03T06:39:19.217Z,34.10
2022-12-03T06:41:45.526Z,36.60
2022-12-03T06:44:11.962Z,33.50
2022-12-03T06:46:38.440Z,37.92
2022-12-03T06:49:04.858Z,33.50
2022-12-03T06:51:31.246Z,33.58
2022-12-03T06:53:57.623Z,34.45
2022-12-03T06:56:23.955Z,34.13
2022-12-03T06:58:50.268Z,34.63
2022-12-03T07:01:16.675Z,34.28
2022-12-03T07:03:43.020Z,33.30
2022-12-03T07:06:09.362Z,32.10
2022-12-03T07:08:35.682Z,33.15
2022-12-03T07:11:01.999Z,36.47
2022-12-03T07:13:28.323Z,37.65
2022-12-03T07:15:54.695Z,35.85
2022-12-03T07:18:21.108Z,35.70
2022-12-03T07:20:47.488Z,35.58
2022-12-03T07:23:13.814Z,33.47
2022-12-03T07:25:40.132Z,37.63
2022-12-03T07:28:06.492Z,33.10
2022-12-03T07:30:32.812Z,33.15
2022-12-03T07:32:59.126Z,29.65
2022-12-03T07:35:25.447Z,35.42
2022-12-03T07:37:51.767Z,33.95
2022-12-03T07:40:18.079Z,34.95
2022-12-03T07:42:44.406Z,33.72
2022-12-03T07:45:10.740Z,34.03
2022-12-03T07:47:37.071Z,33.65
2022-12-03T07:50:08.136Z,35.88
2022-12-03T07:52:34.477Z,32.88
2022-12-03T07:55:00.906Z,34.72
2022-12-03T07:57:27.210Z,29.50
2022-12-03T07:59:53.555Z,33.00
2022-12-03T08:02:21.865Z,37.35
2022-12-03T08:04:48.521Z,31.17
2022-12-03T08:07:14.835Z,30.35
2022-12-03T08:09:41.155Z,31.62
2022-12-03T08:12:07.512Z,32.13
2022-12-03T08:14:33.826Z,34.33
2022-12-03T08:17:00.146Z,31.00
2022-12-03T08:19:26.459Z,36.53
2022-12-03T08:21:56.603Z,32.72
2022-12-03T08:24:27.352Z,30.55
2022-12-03T08:26:53.691Z,32.97
2022-12-03T08:29:20.010Z,32.20
2022-12-03T08:31:46.340Z,31.25
2022-12-03T08:34:12.819Z,36.00
2022-12-03T08:36:39.436Z,32.22
2022-12-03T08:39:05.742Z,34.03
2022-12-03T08:41:50.818Z,33.95
2022-12-03T08:44:17.117Z,35.00
2022-12-03T08:46:43.471Z,34.38
2022-12-03T08:49:09.835Z,32.92
2022-12-03T08:51:36.165Z,38.00
2022-12-03T08:54:02.586Z,39.30
2022-12-03T08:56:29.019Z,37.97
2022-12-03T08:58:55.367Z,34.88
2022-12-03T09:01:21.758Z,38.92
2022-12-03T09:03:48.668Z,37.50
2022-12-03T09:06:15.057Z,37.65
2022-12-03T09:08:41.404Z,36.42
2022-12-03T09:11:07.743Z,37.08
2022-12-03T09:13:34.071Z,38.25
2022-12-03T09:16:00.393Z,37.53
2022-12-03T09:18:26.720Z,36.58
2022-12-03T09:20:53.139Z,41.20
2022-12-03T09:23:19.462Z,38.63
2022-12-03T09:25:45.776Z,37.20
2022-12-03T09:28:12.101Z,38.20
2022-12-03T09:30:38.405Z,39.38
2022-12-03T09:33:04.733Z,40.05
2022-12-03T09:35:31.123Z,36.42
2022-12-03T09:37:57.448Z,42.85
2022-12-03T09:40:23.775Z,40.53
2022-12-03T09:42:50.103Z,40.75
2022-12-03T09:45:16.422Z,37.00
2022-12-03T09:47:42.913Z,42.38
2022-12-03T09:50:09.235Z,40.80
2022-12-03T09:52:35.839Z,39.65
2022-12-03T09:55:02.367Z,40.15
2022-12-03T09:57:28.928Z,39.17
2022-12-03T09:59:55.557Z,40.12
2022-12-03T10:02:22.074Z,43.78
2022-12-03T10:04:48.491Z,42.05
2022-12-03T10:07:14.883Z,40.80
2022-12-03T10:09:41.240Z,40.65
2022-12-03T10:12:07.598Z,40.58
2022-12-03T10:14:33.934Z,39.88
2022-12-03T10:17:00.355Z,38.17
2022-12-03T10:19:26.747Z,39.90
2022-12-03T10:21:53.093Z,40.12
2022-12-03T10:24:19.504Z,40.65
2022-12-03T10:26:45.855Z,38.60
2022-12-03T10:29:12.249Z,40.90
2022-12-03T10:31:38.595Z,38.97
2022-12-03T10:34:04.905Z,35.45
2022-12-03T10:36:31.251Z,41.55
2022-12-03T10:38:57.570Z,39.47
2022-12-03T10:41:23.911Z,41.28
2022-12-03T10:43:50.373Z,42.53
2022-12-03T10:46:16.793Z,37.25
2022-12-03T10:48:43.302Z,38.63
2022-12-03T10:51:09.647Z,44.10
2022-12-03T10:53:35.990Z,42.53
2022-12-03T10:56:02.359Z,39.60
2022-12-03T10:58:28.690Z,40.17
2022-12-03T11:00:55.069Z,41.47
2022-12-03T11:03:21.526Z,45.78
2022-12-03T11:05:48.021Z,45.70
2022-12-03T11:08:14.430Z,42.83
2022-12-03T11:10:40.788Z,45.25
2022-12-03T11:13:07.183Z,45.30
2022-12-03T11:15:33.535Z,46.30
2022-12-03T11:18:00.729Z,44.53
2022-12-03T11:20:27.089Z,46.30
2022-12-03T11:22:53.397Z,46.58
2022-12-03T11:25:19.906Z,43.35
2022-12-03T11:27:46.222Z,46.20
2022-12-03T11:30:12.579Z,40.33
2022-12-03T11:32:38.942Z,43.38
2022-12-03T11:35:05.265Z,44.85
2022-12-03T11:37:31.595Z,44.40
2022-12-03T11:39:57.903Z,48.38
2022-12-03T11:42:27.314Z,43.03
2022-12-03T11:44:53.632Z,46.83
2022-12-03T11:47:19.961Z,46.58
2022-12-03T11:49:46.912Z,46.55
2022-12-03T11:52:13.288Z,41.37
2022-12-03T11:54:39.624Z,44.72
2022-12-03T11:57:06.010Z,46.00
2022-12-03T11:59:32.345Z,49.75
2022-12-03T12:01:58.653Z,47.88
2022-12-03T12:04:25.003Z,43.60
2022-12-03T12:06:53.454Z,44.17
2022-12-03T12:09:19.972Z,46.83
2022-12-03T12:11:46.285Z,42.35
2022-12-03T12:14:12.611Z,44.17
2022-12-03T12:16:39.076Z,41.30
2022-12-03T12:19:05.471Z,42.53
2022-12-03T12:21:31.856Z,42.45
2022-12-03T12:23:58.186Z,38.00
2022-12-03T12:26:24.626Z,38.97
2022-12-03T12:28:50.958Z,36.40
2022-12-03T12:31:17.353Z,38.88
2022-12-03T12:33:43.746Z,36.97
2022-12-03T12:36:10.104Z,36.92
2022-12-03T12:38:36.413Z,38.45
2022-12-03T12:41:02.736Z,39.13
2022-12-03T12:43:30.887Z,44.53
2022-12-03T12:45:57.232Z,43.30
2022-12-03T12:48:23.599Z,39.33
2022-12-03T12:50:49.915Z,42.60
2022-12-03T12:53:16.404Z,38.88
2022-12-03T12:55:42.709Z,40.20
2022-12-03T12:58:09.197Z,41.60
2022-12-03T13:00:35.608Z,42.75
2022-12-03T13:03:02.003Z,38.65
2022-12-03T13:05:28.355Z,40.75
2022-12-03T13:07:54.821Z,40.50
2022-12-03T13:10:21.319Z,37.70
2022-12-03T13:12:47.679Z,39.58
2022-12-03T13:15:14.015Z,40.35
2022-12-03T13:17:40.337Z,35.28
2022-12-03T13:20:10.614Z,35.97
2022-12-03T13:22:37.204Z,37.83
2022-12-03T13:25:03.562Z,34.20
2022-12-03T13:27:30.066Z,35.92
2022-12-03T13:29:56.780Z,34.47
2022-12-03T13:32:23.403Z,38.72
2022-12-03T13:34:50.680Z,37.38
2022-12-03T13:37:16.995Z,35.40
2022-12-03T13:39:43.494Z,40.97
2022-12-03T13:42:28.848Z,36.38
2022-12-03T13:44:55.177Z,36.45
2022-12-03T13:47:21.483Z,33.83
2022-12-03T13:49:47.816Z,38.70
2022-12-03T13:52:14.150Z,34.20
2022-12-03T13:54:40.474Z,35.20
2022-12-03T13:57:06.816Z,33.38
2022-12-03T13:59:33.158Z,28.62
2022-12-03T14:01:59.537Z,32.45
2022-12-03T14:04:27.732Z,32.47
2022-12-03T14:06:54.060Z,28.55
2022-12-03T14:09:20.406Z,28.25
2022-12-03T14:12:05.526Z,27.00
2022-12-03T14:14:31.867Z,22.83
2022-12-03T14:17:00.071Z,22.30
2022-12-03T14:19:26.842Z,17.55
2022-12-03T14:21:53.320Z,18.77
2022-12-03T14:24:19.637Z,20.73
2022-12-03T14:26:45.965Z,20.45
2022-12-03T14:29:12.293Z,20.88
2022-12-03T14:31:38.677Z,21.58
2022-12-03T14:34:05.031Z,19.70
2022-12-03T14:36:31.348Z,20.48
2022-12-03T14:38:57.794Z,19.98
2022-12-03T14:41:42.979Z,21.42
2022-12-03T14:44:09.343Z,21.00
2022-12-03T14:46:35.660Z,22.33
2022-12-03T14:49:01.995Z,21.80
2022-12-03T14:51:28.384Z,20.48
2022-12-03T14:53:54.766Z,19.42
2022-12-03T14:56:21.088Z,21.98
2022-12-03T14:58:47.474Z,22.52
2022-12-03T15:01:14.902Z,24.05
2022-12-03T15:03:41.397Z,27.62
2022-12-03T15:06:07.711Z,52.20
2022-12-03T15:08:34.043Z,31.20
2022-12-03T15:11:00.415Z,32.38
2022-12-03T15:13:26.921Z,32.50
2022-12-03T15:15:53.233Z,36.22
2022-12-03T15:18:19.557Z,37.40
2022-12-03T15:20:46.015Z,37.53
2022-12-03T15:23:14.435Z,39.88
2022-12-03T15:25:41.101Z,35.25
2022-12-03T15:28:07.497Z,36.80
2022-12-03T15:30:35.902Z,38.13
2022-12-03T15:33:02.765Z,34.70
2022-12-03T15:35:29.162Z,40.55
2022-12-03T15:37:55.469Z,40.00
2022-12-03T15:40:21.781Z,40.90
2022-12-03T15:42:48.116Z,39.53
2022-12-03T15:45:15.520Z,42.30
2022-12-03T15:47:41.979Z,44.10
2022-12-03T15:50:08.307Z,45.00
2022-12-03T15:52:34.634Z,38.35
2022-12-03T15:55:00.992Z,44.78
2022-12-03T15:57:27.315Z,40.53
2022-12-03T15:59:55.236Z,40.88
2022-12-03T16:02:21.846Z,42.20
2022-12-03T16:04:48.192Z,41.15
2022-12-03T16:07:14.512Z,43.08
2022-12-03T16:09:40.884Z,42.03
2022-12-03T16:12:07.213Z,41.67
2022-12-03T16:14:33.592Z,36.40
2022-12-03T16:17:00.337Z,39.15
2022-12-03T16:19:26.650Z,40.80
2022-12-03T16:21:52.965Z,39.55
2022-12-03T16:24:19.281Z,41.67
2022-12-03T16:26:45.599Z,42.15
2022-12-03T16:29:11.922Z,37.08
2022-12-03T16:31:38.355Z,44.53
2022-12-03T16:34:04.821Z,42.38
2022-12-03T16:36:31.149Z,46.47
2022-12-03T16:38:58.177Z,45.97
2022-12-03T16:41:24.523Z,40.72
2022-12-03T16:43:50.917Z,42.70
2022-12-03T16:46:17.280Z,45.90
2022-12-03T16:48:43.739Z,48.38
2022-12-03T16:51:10.071Z,47.55
2022-12-03T16:53:36.419Z,52.08
2022-12-03T16:56:02.822Z,46.63
2022-12-03T16:58:29.174Z,50.28
2022-12-03T17:00:55.499Z,50.85
2022-12-03T17:03:21.969Z,47.47
2022-12-03T17:05:48.310Z,51.30
2022-12-03T17:08:14.709Z,47.25
2022-12-03T17:10:41.249Z,47.80
2022-12-03T17:13:09.674Z,46.17
2022-12-03T17:15:36.799Z,49.03
2022-12-03T17:18:06.267Z,46.45
2022-12-03T17:20:32.619Z,51.00
2022-12-03T17:22:59.192Z,49.17
2022-12-03T17:25:25.526Z,47.67
2022-12-03T17:27:51.842Z,53.25
2022-12-03T17:30:18.234Z,55.95
2022-12-03T17:32:44.579Z,50.70
2022-12-03T17:35:10.906Z,52.00
2022-12-03T17:37:37.266Z,46.37
2022-12-03T17:40:03.666Z,45.00
2022-12-03T17:42:30.006Z,46.55
2022-12-03T17:44:56.321Z,51.22
2022-12-03T17:47:22.643Z,41.15
2022-12-03T17:49:48.978Z,44.75
2022-12-03T17:52:15.303Z,42.72
2022-12-03T17:55:08.544Z,39.33
2022-12-03T17:57:27.941Z,42.50
2022-12-03T17:59:54.405Z,43.90
2022-12-03T18:02:20.932Z,40.58
2022-12-03T18:04:47.277Z,42.85
2022-12-03T18:07:13.786Z,37.17
2022-12-03T18:09:40.106Z,44.65
2022-12-03T18:12:06.685Z,41.25
2022-12-03T18:14:33.025Z,38.80
2022-12-03T18:16:59.332Z,36.80
2022-12-03T18:19:25.712Z,41.10
2022-12-03T18:21:52.036Z,42.17
2022-12-03T18:24:18.369Z,38.88
2022-12-03T18:26:44.692Z,39.80
2022-12-03T18:29:11.008Z,39.63
2022-12-03T18:31:37.344Z,42.08
2022-12-03T18:34:07.459Z,40.63
2022-12-03T18:36:33.773Z,40.47
2022-12-03T18:39:01.107Z,40.95
2022-12-03T18:41:27.418Z,38.70
2022-12-03T18:43:53.762Z,42.35
2022-12-03T18:49:06.587Z,39.42
2022-12-03T18:51:32.901Z,40.58
2022-12-03T18:53:59.235Z,38.30
2022-12-03T18:56:25.754Z,46.88
2022-12-03T18:58:52.067Z,39.70
2022-12-03T19:01:18.491Z,40.75
2022-12-03T19:03:44.848Z,40.55
2022-12-03T19:06:16.905Z,43.05
2022-12-03T19:11:16.440Z,39.65
2022-12-03T19:13:42.755Z,42.58
2022-12-03T19:16:09.173Z,41.25
2022-12-03T19:18:35.534Z,43.47
2022-12-03T19:21:01.937Z,42.03
2022-12-03T19:23:28.274Z,42.58
2022-12-03T19:25:54.594Z,46.75
2022-12-03T19:28:20.908Z,44.13
2022-12-03T19:30:50.356Z,49.78
2022-12-03T19:33:18.264Z,49.90
2022-12-03T19:35:44.823Z,47.10
2022-12-03T19:38:11.191Z,48.15
2022-12-03T19:40:37.540Z,43.40
2022-12-03T19:43:03.879Z,39.00
2022-12-03T19:45:30.257Z,41.97
2022-12-03T19:47:56.656Z,41.60
2022-12-03T19:50:23.797Z,39.88
2022-12-03T19:52:50.212Z,41.03
2022-12-03T19:55:19.546Z,40.90
2022-12-03T19:57:45.907Z,34.33
2022-12-03T20:00:12.341Z,35.53
2022-12-03T20:02:38.728Z,41.53
2022-12-03T20:05:05.090Z,36.08
2022-12-03T20:07:31.593Z,36.00
2022-12-03T20:09:58.338Z,38.03
2022-12-03T20:12:24.834Z,38.42
2022-12-03T20:14:51.743Z,36.67
2022-12-03T20:17:18.060Z,35.85
2022-12-03T20:19:44.372Z,36.75
2022-12-03T20:22:10.731Z,36.50
2022-12-03T20:24:37.045Z,40.83
2022-12-03T20:27:03.366Z,36.97
2022-12-03T20:29:29.677Z,40.00
2022-12-03T20:31:56.046Z,44.55
2022-12-03T20:34:22.390Z,49.55
2022-12-03T20:36:48.776Z,45.80
2022-12-03T20:39:15.147Z,47.03
2022-12-03T20:41:41.490Z,43.75
2022-12-03T20:44:08.012Z,53.35
2022-12-03T20:46:34.683Z,46.37
2022-12-03T20:49:01.147Z,46.55
2022-12-03T20:51:27.583Z,49.45
2022-12-03T20:53:53.915Z,51.72
2022-12-03T20:56:20.575Z,52.88
2022-12-03T20:58:46.939Z,50.92
2022-12-03T21:01:15.947Z,53.47
2022-12-03T21:03:44.271Z,57.97
2022-12-03T21:06:10.598Z,58.28
2022-12-03T21:08:41.700Z,58.45
2022-12-03T21:11:09.011Z,56.50
2022-12-03T21:13:35.383Z,60.47
2022-12-03T21:16:02.143Z,60.55
2022-12-03T21:18:28.465Z,59.80
2022-12-03T21:20:54.803Z,62.85
2022-12-03T21:23:21.110Z,62.85
2022-12-03T21:25:47.413Z,62.95
2022-12-03T21:28:13.723Z,66.75
2022-12-03T21:30:40.144Z,63.92
2022-12-03T21:33:06.567Z,63.85
2022-12-03T21:35:32.889Z,63.33
2022-12-03T21:37:59.353Z,62.53
2022-12-03T21:40:25.654Z,67.50
2022-12-03T21:42:51.977Z,60.20
2022-12-03T21:45:18.372Z,68.00
2022-12-03T21:47:44.764Z,64.47
2022-12-03T21:50:11.602Z,63.47
2022-12-03T21:52:37.953Z,62.20
2022-12-03T21:55:04.363Z,61.13
2022-12-03T21:57:30.707Z,64.22
2022-12-03T21:59:57.526Z,69.95
2022-12-03T22:02:24.128Z,63.97
2022-12-03T22:04:50.726Z,61.35
2022-12-03T22:07:17.203Z,63.03
2022-12-03T22:09:43.566Z,61.88
2022-12-03T22:12:09.884Z,62.72
2022-12-03T22:14:36.296Z,60.95
2022-12-03T22:17:02.608Z,59.33
2022-12-03T22:19:28.932Z,64.40
2022-12-03T22:21:55.297Z,60.20
2022-12-03T22:24:21.696Z,59.67
2022-12-03T22:26:48.018Z,56.47
2022-12-03T22:29:14.995Z,55.83
2022-12-03T22:31:41.300Z,56.10
2022-12-03T22:34:07.648Z,60.20
2022-12-03T22:36:33.975Z,55.80
2022-12-03T22:39:00.314Z,60.12
2022-12-03T22:41:26.635Z,60.58
2022-12-03T22:43:52.960Z,66.93
2022-12-03T22:46:19.382Z,59.75
2022-12-03T22:48:45.774Z,64.78
2022-12-03T22:51:12.229Z,56.70
2022-12-03T22:53:38.545Z,58.13
2022-12-03T22:56:04.865Z,57.90
2022-12-03T22:58:31.830Z,63.35
2022-12-03T23:01:02.604Z,56.58
2022-12-03T23:03:29.883Z,56.85
2022-12-03T23:05:56.338Z,66.93
2022-12-03T23:08:22.740Z,54.47
2022-12-03T23:10:49.060Z,65.55
2022-12-03T23:13:15.399Z,59.47
2022-12-03T23:15:41.752Z,69.93
2022-12-03T23:18:08.077Z,58.45
2022-12-03T23:20:34.407Z,62.65
2022-12-03T23:23:00.718Z,64.90
2022-12-03T23:25:27.037Z,62.08
2022-12-03T23:27:53.337Z,59.88
2022-12-03T23:30:19.709Z,59.67
2022-12-03T23:32:46.043Z,67.25
2022-12-03T23:35:12.402Z,62.10
2022-12-03T23:37:38.728Z,58.85
2022-12-03T23:40:05.044Z,56.63
2022-12-03T23:42:31.349Z,60.53
2022-12-03T23:44:57.655Z,60.67
2022-12-03T23:47:24.243Z,53.58
2022-12-03T23:49:50.612Z,57.65
2022-12-03T23:52:16.935Z,58.03
2022-12-03T23:54:43.250Z,61.90
2022-12-03T23:57:09.563Z,59.53
2022-12-03T23:59:35.866Z,61.83
